createdAt,value
2022-09-23T00:00:07.520Z,98678.56
2022-09-23T00:01:10.242Z,98683.34
2022-09-23T00:02:11.701Z,98682.06
2022-09-23T00:03:13.890Z,98676.28
2022-09-23T00:04:15.229Z,98679.47
2022-09-23T00:05:16.575Z,98680.56
2022-09-23T00:06:19.396Z,98683.50
2022-09-23T00:07:20.706Z,98679.25
2022-09-23T00:08:22.087Z,98678.78
2022-09-23T00:09:23.384Z,98676.41
2022-09-23T00:10:25.753Z,98677.19
2022-09-23T00:11:28.192Z,98677.69
2022-09-23T00:12:29.531Z,98686.69
2022-09-23T00:13:30.883Z,98678.53
2022-09-23T00:14:32.182Z,98679.91
2022-09-23T00:15:38.082Z,98684.41
2022-09-23T00:16:39.460Z,98681.19
2022-09-23T00:17:40.810Z,98675.91
2022-09-23T00:18:42.474Z,98680.69
2022-09-23T00:19:43.803Z,98676.50
2022-09-23T00:20:45.107Z,98684.63
2022-09-23T00:21:46.418Z,98681.78
2022-09-23T00:22:47.743Z,98681.00
2022-09-23T00:23:49.488Z,98682.03
2022-09-23T00:24:50.817Z,98678.91
2022-09-23T00:25:55.954Z,98684.50
2022-09-23T00:26:57.279Z,98686.31
2022-09-23T00:27:58.602Z,98682.41
2022-09-23T00:28:59.947Z,98681.91
2022-09-23T00:30:02.155Z,98674.53
2022-09-23T00:31:07.581Z,98679.81
2022-09-23T00:32:09.025Z,98680.13
2022-09-23T00:33:10.385Z,98682.25
2022-09-23T00:34:11.850Z,98678.53
2022-09-23T00:35:13.210Z,98673.25
2022-09-23T00:36:15.842Z,98676.97
2022-09-23T00:37:17.239Z,98675.38
2022-09-23T00:38:18.604Z,98676.47
2022-09-23T00:39:20.017Z,98670.94
2022-09-23T00:40:21.417Z,98669.38
2022-09-23T00:41:23.614Z,98680.25
2022-09-23T00:42:24.999Z,98677.09
2022-09-23T00:43:43.385Z,98671.03
2022-09-23T00:44:44.702Z,98667.88
2022-09-23T00:45:48.408Z,98675.00
2022-09-23T00:46:50.185Z,98670.78
2022-09-23T00:47:59.384Z,98666.59
2022-09-23T00:49:06.807Z,98670.00
2022-09-23T00:50:11.032Z,98671.09
2022-09-23T00:51:15.121Z,98667.94
2022-09-23T00:52:17.973Z,98670.28
2022-09-23T00:53:21.646Z,98666.66
2022-09-23T00:54:24.397Z,98663.78
2022-09-23T00:55:32.476Z,98666.72
2022-09-23T00:56:34.837Z,98654.84
2022-09-23T00:57:37.971Z,98658.56
2022-09-23T00:58:40.869Z,98672.84
2022-09-23T00:59:43.212Z,98665.47
2022-09-23T01:00:44.634Z,98669.47
2022-09-23T01:01:46.445Z,98668.94
2022-09-23T01:02:48.059Z,98666.31
2022-09-23T01:03:50.097Z,98663.97
2022-09-23T01:04:51.495Z,98665.03
2022-09-23T01:05:53.021Z,98660.03
2022-09-23T01:06:54.349Z,98656.09
2022-09-23T01:07:57.218Z,98657.72
2022-09-23T01:08:58.562Z,98656.66
2022-09-23T01:10:00.792Z,98656.44
2022-09-23T01:11:05.459Z,98656.94
2022-09-23T01:12:09.854Z,98669.66
2022-09-23T01:13:37.384Z,98663.56
2022-09-23T01:14:48.764Z,98655.41
2022-09-23T01:15:55.895Z,98658.34
2022-09-23T01:17:00.286Z,98659.34
2022-09-23T01:18:01.685Z,98657.50
2022-09-23T01:19:16.364Z,98652.78
2022-09-23T01:20:27.258Z,98659.41
2022-09-23T01:21:31.434Z,98658.06
2022-09-23T01:22:32.751Z,98661.78
2022-09-23T01:23:40.106Z,98658.13
2022-09-23T01:25:09.469Z,98656.81
2022-09-23T01:26:21.254Z,98655.53
2022-09-23T01:27:31.714Z,98658.47
2022-09-23T01:28:41.029Z,98651.88
2022-09-23T01:30:01.151Z,98659.78
2022-09-23T01:31:05.151Z,98654.03
2022-09-23T01:32:12.652Z,98648.75
2022-09-23T01:33:21.563Z,98643.47
2022-09-23T01:34:32.000Z,98649.25
2022-09-23T01:35:39.421Z,98643.97
2022-09-23T01:36:48.102Z,98652.16
2022-09-23T01:37:55.925Z,98647.16
2022-09-23T01:39:00.893Z,98652.44
2022-09-23T01:40:24.068Z,98647.44
2022-09-23T01:41:32.914Z,98645.88
2022-09-23T01:42:41.750Z,98654.28
2022-09-23T01:43:48.327Z,98647.16
2022-09-23T01:44:49.640Z,98643.22
2022-09-23T01:45:54.171Z,98648.50
2022-09-23T01:46:58.607Z,98645.09
2022-09-23T01:48:10.249Z,98643.50
2022-09-23T01:49:17.130Z,98642.69
2022-09-23T01:50:20.604Z,98645.09
2022-09-23T01:51:37.326Z,98641.38
2022-09-23T01:52:40.248Z,98638.50
2022-09-23T01:53:53.218Z,98644.84
2022-09-23T01:54:54.579Z,98643.53
2022-09-23T01:55:58.608Z,98639.63
2022-09-23T01:57:04.174Z,98641.75
2022-09-23T01:58:08.448Z,98644.66
2022-09-23T01:59:36.390Z,98641.25
2022-09-23T02:00:40.746Z,98636.25
2022-09-23T02:01:45.184Z,98634.16
2022-09-23T02:02:52.639Z,98643.94
2022-09-23T02:04:05.957Z,98634.72
2022-09-23T02:05:10.856Z,98631.28
2022-09-23T02:06:34.319Z,98630.50
2022-09-23T02:07:41.233Z,98630.00
2022-09-23T02:08:45.032Z,98635.53
2022-09-23T02:09:48.885Z,98634.22
2022-09-23T02:10:57.059Z,98625.81
2022-09-23T02:12:02.476Z,98625.03
2022-09-23T02:13:08.509Z,98633.44
2022-09-23T02:14:15.177Z,98636.88
2022-09-23T02:15:19.067Z,98630.56
2022-09-23T02:16:30.076Z,98629.00
2022-09-23T02:17:34.623Z,98630.06
2022-09-23T02:18:53.088Z,98622.44
2022-09-23T02:19:56.954Z,98633.00
2022-09-23T02:21:04.651Z,98630.34
2022-09-23T02:22:12.853Z,98628.75
2022-09-23T02:23:19.506Z,98633.00
2022-09-23T02:24:24.393Z,98630.06
2022-09-23T02:25:29.175Z,98627.44
2022-09-23T02:26:34.776Z,98629.53
2022-09-23T02:27:36.209Z,98630.63
2022-09-23T02:28:43.254Z,98628.25
2022-09-23T02:29:50.550Z,98624.84
2022-09-23T02:30:58.051Z,98620.63
2022-09-23T02:32:05.584Z,98619.81
2022-09-23T02:33:24.505Z,98617.41
2022-09-23T02:34:25.803Z,98621.13
2022-09-23T02:35:32.770Z,98622.19
2022-09-23T02:36:52.547Z,98624.56
2022-09-23T02:37:56.769Z,98620.63
2022-09-23T02:39:01.177Z,98619.81
2022-09-23T02:40:21.452Z,98621.69
2022-09-23T02:41:28.682Z,98626.16
2022-09-23T02:42:38.314Z,98620.63
2022-09-23T02:43:45.614Z,98622.19
2022-09-23T02:44:47.307Z,98623.53
2022-09-23T02:45:49.407Z,98625.09
2022-09-23T02:46:51.418Z,98618.00
2022-09-23T02:47:56.750Z,98621.41
2022-09-23T02:49:08.644Z,98625.91
2022-09-23T02:50:10.086Z,98617.72
2022-09-23T02:51:12.668Z,98623.22
2022-09-23T02:52:14.039Z,98618.72
2022-09-23T02:53:15.368Z,98617.13
2022-09-23T02:54:18.687Z,98620.28
2022-09-23T02:55:21.268Z,98613.72
2022-09-23T02:56:22.598Z,98612.44
2022-09-23T02:57:24.077Z,98610.88
2022-09-23T02:58:25.521Z,98610.88
2022-09-23T02:59:27.010Z,98609.84
2022-09-23T03:00:46.876Z,98607.22
2022-09-23T03:01:53.968Z,98612.75
2022-09-23T03:03:03.002Z,98609.31
2022-09-23T03:04:07.048Z,98605.06
2022-09-23T03:05:27.242Z,98605.84
2022-09-23T03:06:31.045Z,98608.78
2022-09-23T03:07:35.206Z,98609.06
2022-09-23T03:08:41.431Z,98602.47
2022-09-23T03:09:59.423Z,98603.53
2022-09-23T03:11:06.426Z,98604.84
2022-09-23T03:12:22.923Z,98606.19
2022-09-23T03:13:29.173Z,98599.59
2022-09-23T03:14:40.989Z,98601.75
2022-09-23T03:15:51.807Z,98603.88
2022-09-23T03:16:58.593Z,98600.47
2022-09-23T03:18:02.624Z,98602.28
2022-09-23T03:19:17.911Z,98603.34
2022-09-23T03:20:23.750Z,98606.00
2022-09-23T03:21:29.769Z,98608.91
2022-09-23T03:22:37.490Z,98608.66
2022-09-23T03:23:40.935Z,98602.59
2022-09-23T03:24:44.268Z,98607.59
2022-09-23T03:25:46.917Z,98608.41
2022-09-23T03:26:48.801Z,98601.28
2022-09-23T03:27:50.520Z,98604.72
2022-09-23T03:28:52.431Z,98600.50
2022-09-23T03:29:54.067Z,98601.03
2022-09-23T03:30:56.199Z,98604.47
2022-09-23T03:31:58.045Z,98600.75
2022-09-23T03:32:59.575Z,98597.34
2022-09-23T03:34:02.270Z,98599.94
2022-09-23T03:35:04.981Z,98605.16
2022-09-23T03:36:08.402Z,98600.63
2022-09-23T03:37:25.158Z,98596.94
2022-09-23T03:38:29.983Z,98608.00
2022-09-23T03:39:34.412Z,98599.28
2022-09-23T03:40:39.745Z,98598.72
2022-09-23T03:41:44.995Z,98607.16
2022-09-23T03:42:46.647Z,98598.94
2022-09-23T03:43:48.462Z,98600.25
2022-09-23T03:44:52.201Z,98593.91
2022-09-23T03:45:54.063Z,98595.19
2022-09-23T03:46:58.994Z,98593.56
2022-09-23T03:48:00.563Z,98599.63
2022-09-23T03:49:10.324Z,98594.38
2022-09-23T03:50:12.710Z,98599.13
2022-09-23T03:51:21.355Z,98589.59
2022-09-23T03:52:23.557Z,98587.19
2022-09-23T03:53:24.906Z,98582.88
2022-09-23T03:54:26.233Z,98585.28
2022-09-23T03:55:27.583Z,98582.09
2022-09-23T03:56:28.899Z,98578.19
2022-09-23T03:57:30.275Z,98583.19
2022-09-23T03:58:31.610Z,98584.25
2022-09-23T03:59:33.378Z,98582.16
2022-09-23T04:00:34.821Z,98577.97
2022-09-23T04:01:36.299Z,98579.31
2022-09-23T04:02:37.641Z,98579.09
2022-09-23T04:03:38.951Z,98577.50
2022-09-23T04:04:40.272Z,98584.63
2022-09-23T04:05:41.629Z,98578.53
2022-09-23T04:06:43.054Z,98578.81
2022-09-23T04:07:44.411Z,98578.31
2022-09-23T04:08:45.722Z,98572.25
2022-09-23T04:09:47.005Z,98572.25
2022-09-23T04:10:50.718Z,98574.38
2022-09-23T04:11:55.465Z,98568.81
2022-09-23T04:12:56.783Z,98563.28
2022-09-23T04:13:58.116Z,98565.38
2022-09-23T04:14:59.484Z,98563.81
2022-09-23T04:16:01.004Z,98558.06
2022-09-23T04:17:02.382Z,98559.69
2022-09-23T04:18:03.830Z,98558.88
2022-09-23T04:19:05.248Z,98563.38
2022-09-23T04:20:06.842Z,98562.31
2022-09-23T04:21:08.261Z,98565.25
2022-09-23T04:22:09.721Z,98557.59
2022-09-23T04:23:11.021Z,98563.94
2022-09-23T04:24:12.805Z,98558.94
2022-09-23T04:25:14.103Z,98560.81
2022-09-23T04:26:15.516Z,98568.47
2022-09-23T04:27:16.848Z,98561.09
2022-09-23T04:28:18.290Z,98561.41
2022-09-23T04:29:20.917Z,98563.25
2022-09-23T04:30:22.484Z,98561.41
2022-09-23T04:31:24.272Z,98557.44
2022-09-23T04:32:25.966Z,98561.94
2022-09-23T04:33:27.935Z,98551.97
2022-09-23T04:34:29.433Z,98557.50
2022-09-23T04:35:30.865Z,98560.41
2022-09-23T04:36:32.213Z,98559.63
2022-09-23T04:37:33.570Z,98562.56
2022-09-23T04:38:34.908Z,98556.50
2022-09-23T04:39:36.233Z,98565.47
2022-09-23T04:40:37.662Z,98560.47
2022-09-23T04:41:39.078Z,98563.09
2022-09-23T04:42:40.431Z,98563.38
2022-09-23T04:43:42.436Z,98560.97
2022-09-23T04:44:43.750Z,98564.13
2022-09-23T04:45:45.245Z,98558.31
2022-09-23T04:46:46.946Z,98563.59
2022-09-23T04:47:48.447Z,98563.59
2022-09-23T04:48:50.018Z,98562.03
2022-09-23T04:49:51.538Z,98563.88
2022-09-23T04:50:53.007Z,98564.13
2022-09-23T04:51:54.508Z,98560.97
2022-09-23T04:52:56.231Z,98568.38
2022-09-23T04:53:57.885Z,98565.47
2022-09-23T04:54:59.215Z,98564.66
2022-09-23T04:56:04.619Z,98557.28
2022-09-23T04:57:05.953Z,98562.28
2022-09-23T04:58:07.353Z,98565.19
2022-09-23T04:59:08.768Z,98566.25
2022-09-23T05:00:10.607Z,98563.84
2022-09-23T05:01:13.309Z,98566.75
2022-09-23T05:02:14.700Z,98561.78
2022-09-23T05:03:16.085Z,98565.97
2022-09-23T05:04:17.575Z,98563.88
2022-09-23T05:05:19.073Z,98573.66
2022-09-23T05:06:20.453Z,98568.66
2022-09-23T05:07:21.794Z,98575.50
2022-09-23T05:08:23.119Z,98574.72
2022-09-23T05:09:24.503Z,98573.16
2022-09-23T05:10:25.839Z,98572.38
2022-09-23T05:11:28.908Z,98575.50
2022-09-23T05:12:30.272Z,98575.78
2022-09-23T05:13:31.790Z,98585.25
2022-09-23T05:14:33.143Z,98575.78
2022-09-23T05:15:34.695Z,98579.22
2022-09-23T05:16:36.063Z,98582.63
2022-09-23T05:17:37.490Z,98585.75
2022-09-23T05:18:39.749Z,98586.56
2022-09-23T05:19:41.062Z,98585.22
2022-09-23T05:20:42.383Z,98583.38
2022-09-23T05:21:43.721Z,98583.09
2022-09-23T05:22:45.134Z,98589.66
2022-09-23T05:23:50.251Z,98591.47
2022-09-23T05:24:51.763Z,98586.19
2022-09-23T05:26:00.101Z,98588.25
2022-09-23T05:27:01.547Z,98582.22
2022-09-23T05:28:02.902Z,98585.88
2022-09-23T05:29:05.051Z,98587.19
2022-09-23T05:30:07.062Z,98587.97
2022-09-23T05:31:18.655Z,98590.03
2022-09-23T05:32:21.309Z,98587.13
2022-09-23T05:33:22.640Z,98587.91
2022-09-23T05:34:23.994Z,98586.56
2022-09-23T05:35:25.294Z,98578.09
2022-09-23T05:36:27.265Z,98580.44
2022-09-23T05:37:28.604Z,98589.13
2022-09-23T05:38:30.708Z,98586.25
2022-09-23T05:39:32.047Z,98584.88
2022-09-23T05:40:33.415Z,98586.44
2022-09-23T05:41:34.924Z,98591.69
2022-09-23T05:42:36.399Z,98583.22
2022-09-23T05:43:37.822Z,98587.69
2022-09-23T05:44:39.125Z,98580.78
2022-09-23T05:45:40.509Z,98578.91
2022-09-23T05:46:41.931Z,98575.22
2022-09-23T05:47:43.334Z,98583.06
2022-09-23T05:48:44.944Z,98580.94
2022-09-23T05:49:59.262Z,98582.50
2022-09-23T05:51:01.649Z,98582.75
2022-09-23T05:52:03.038Z,98580.31
2022-09-23T05:53:04.347Z,98579.75
2022-09-23T05:54:06.057Z,98577.59
2022-09-23T05:55:07.768Z,98580.78
2022-09-23T05:56:09.242Z,98583.59
2022-09-23T05:57:10.544Z,98579.34
2022-09-23T05:58:12.370Z,98582.22
2022-09-23T05:59:13.710Z,98579.00
2022-09-23T06:00:15.084Z,98577.88
2022-09-23T06:01:18.313Z,98576.72
2022-09-23T06:02:19.697Z,98574.81
2022-09-23T06:03:21.485Z,98573.16
2022-09-23T06:04:22.876Z,98576.03
2022-09-23T06:05:24.305Z,98577.03
2022-09-23T06:06:36.628Z,98579.09
2022-09-23T06:07:37.945Z,98570.59
2022-09-23T06:08:39.286Z,98572.19
2022-09-23T06:09:40.607Z,98574.75
2022-09-23T06:10:43.174Z,98573.31
2022-09-23T06:11:44.537Z,98578.03
2022-09-23T06:12:45.921Z,98584.59
2022-09-23T06:13:47.756Z,98574.44
2022-09-23T06:14:49.062Z,98574.97
2022-09-23T06:15:50.598Z,98572.25
2022-09-23T06:16:51.941Z,98572.94
2022-09-23T06:17:53.326Z,98575.81
2022-09-23T06:18:54.908Z,98571.78
2022-09-23T06:19:56.238Z,98575.72
2022-09-23T06:21:00.265Z,98573.28
2022-09-23T06:22:01.607Z,98572.69
2022-09-23T06:23:07.334Z,98566.53
2022-09-23T06:24:14.353Z,98570.19
2022-09-23T06:25:17.383Z,98561.69
2022-09-23T06:26:18.674Z,98562.47
2022-09-23T06:27:20.187Z,98565.28
2022-09-23T06:28:21.498Z,98564.72
2022-09-23T06:29:22.804Z,98559.03
2022-09-23T06:30:24.515Z,98565.31
2022-09-23T06:31:25.946Z,98564.75
2022-09-23T06:32:27.287Z,98564.34
2022-09-23T06:33:36.319Z,98568.00
2022-09-23T06:34:50.293Z,98559.97
2022-09-23T06:36:11.586Z,98563.91
2022-09-23T06:37:19.679Z,98560.66
2022-09-23T06:38:21.769Z,98563.19
2022-09-23T06:39:23.099Z,98559.41
2022-09-23T06:40:24.557Z,98567.25
2022-09-23T06:41:26.002Z,98569.00
2022-09-23T06:42:30.507Z,98558.91
2022-09-23T06:43:31.969Z,98563.63
2022-09-23T06:44:33.346Z,98565.38
2022-09-23T06:45:35.060Z,98565.56
2022-09-23T06:46:36.477Z,98569.50
2022-09-23T06:47:37.941Z,98564.38
2022-09-23T06:48:42.777Z,98573.28
2022-09-23T06:49:46.782Z,98574.31
2022-09-23T06:50:48.198Z,98574.97
2022-09-23T06:51:49.551Z,98572.53
2022-09-23T06:52:54.807Z,98565.38
2022-09-23T06:53:56.178Z,98571.75
2022-09-23T06:54:57.511Z,98576.75
2022-09-23T06:56:03.179Z,98569.56
2022-09-23T06:57:04.510Z,98570.88
2022-09-23T06:58:05.842Z,98577.72
2022-09-23T06:59:09.156Z,98571.34
2022-09-23T07:00:10.819Z,98567.63
2022-09-23T07:01:13.445Z,98568.09
2022-09-23T07:02:14.853Z,98572.31
2022-09-23T07:03:16.382Z,98574.66
2022-09-23T07:04:17.732Z,98570.84
2022-09-23T07:05:19.051Z,98567.41
2022-09-23T07:06:20.399Z,98573.84
2022-09-23T07:07:21.715Z,98570.63
2022-09-23T07:08:23.370Z,98571.59
2022-09-23T07:09:24.720Z,98567.56
2022-09-23T07:10:26.118Z,98573.94
2022-09-23T07:11:27.438Z,98570.28
2022-09-23T07:12:28.763Z,98577.16
2022-09-23T07:13:30.527Z,98572.03
2022-09-23T07:14:31.877Z,98575.66
2022-09-23T07:15:33.275Z,98573.97
2022-09-23T07:16:34.612Z,98572.28
2022-09-23T07:17:35.986Z,98572.97
2022-09-23T07:18:37.693Z,98570.97
2022-09-23T07:19:39.137Z,98571.31
2022-09-23T07:20:40.454Z,98571.97
2022-09-23T07:21:41.877Z,98571.69
2022-09-23T07:22:43.289Z,98573.44
2022-09-23T07:23:45.939Z,98575.66
2022-09-23T07:24:47.470Z,98573.34
2022-09-23T07:25:48.792Z,98580.41
2022-09-23T07:26:50.109Z,98566.72
2022-09-23T07:27:51.446Z,98574.56
2022-09-23T07:28:56.307Z,98575.97
2022-09-23T07:29:57.683Z,98572.88
2022-09-23T07:31:02.903Z,98569.50
2022-09-23T07:32:12.951Z,98571.69
2022-09-23T07:33:29.404Z,98569.25
2022-09-23T07:34:32.641Z,98567.25
2022-09-23T07:35:34.018Z,98558.34
2022-09-23T07:36:35.390Z,98567.63
2022-09-23T07:37:36.749Z,98568.44
2022-09-23T07:38:42.765Z,98575.97
2022-09-23T07:39:46.423Z,98567.53
2022-09-23T07:40:47.868Z,98563.78
2022-09-23T07:41:49.249Z,98570.22
2022-09-23T07:42:50.696Z,98573.78
2022-09-23T07:43:52.018Z,98568.34
2022-09-23T07:44:53.315Z,98570.69
2022-09-23T07:45:54.679Z,98570.53
2022-09-23T07:46:56.073Z,98567.09
2022-09-23T07:47:57.378Z,98566.94
2022-09-23T07:48:58.930Z,98572.44
2022-09-23T07:50:00.719Z,98568.81
2022-09-23T07:51:09.621Z,98570.84
2022-09-23T07:52:10.943Z,98561.44
2022-09-23T07:53:12.301Z,98568.38
2022-09-23T07:54:14.568Z,98563.81
2022-09-23T07:55:20.270Z,98569.13
2022-09-23T07:56:26.556Z,98565.38
2022-09-23T07:57:27.905Z,98567.88
2022-09-23T07:58:29.241Z,98559.91
2022-09-23T07:59:30.578Z,98567.56
2022-09-23T08:00:31.950Z,98561.16
2022-09-23T08:01:35.359Z,98566.47
2022-09-23T08:02:36.723Z,98563.66
2022-09-23T08:03:38.893Z,98576.81
2022-09-23T08:04:40.207Z,98568.81
2022-09-23T08:05:41.642Z,98572.72
2022-09-23T08:06:51.558Z,98566.13
2022-09-23T08:07:52.967Z,98571.59
2022-09-23T08:08:56.732Z,98570.81
2022-09-23T08:09:58.069Z,98577.25
2022-09-23T08:11:03.829Z,98568.31
2022-09-23T08:12:05.421Z,98577.53
2022-09-23T08:13:06.852Z,98575.53
2022-09-23T08:14:08.985Z,98575.06
2022-09-23T08:15:10.355Z,98570.50
2022-09-23T08:16:11.824Z,98578.97
2022-09-23T08:17:13.233Z,98577.69
2022-09-23T08:18:14.593Z,98576.59
2022-09-23T08:19:15.931Z,98573.66
2022-09-23T08:20:17.314Z,98582.09
2022-09-23T08:21:21.277Z,98573.16
2022-09-23T08:22:22.595Z,98580.19
2022-09-23T08:23:23.979Z,98584.25
2022-09-23T08:24:25.861Z,98581.91
2022-09-23T08:25:27.208Z,98572.34
2022-09-23T08:26:28.748Z,98573.13
2022-09-23T08:27:30.100Z,98581.56
2022-09-23T08:28:31.781Z,98575.91
2022-09-23T08:29:33.288Z,98573.91
2022-09-23T08:30:34.845Z,98573.41
2022-09-23T08:31:36.180Z,98578.25
2022-09-23T08:32:37.518Z,98578.84
2022-09-23T08:33:38.924Z,98580.38
2022-09-23T08:34:40.295Z,98578.34
2022-09-23T08:35:41.918Z,98575.03
2022-09-23T08:36:43.540Z,98574.41
2022-09-23T08:37:44.846Z,98574.38
2022-09-23T08:38:46.218Z,98571.69
2022-09-23T08:39:47.629Z,98571.97
2022-09-23T08:40:49.374Z,98571.16
2022-09-23T08:41:58.258Z,98568.47
2022-09-23T08:43:00.462Z,98566.41
2022-09-23T08:44:03.612Z,98568.09
2022-09-23T08:45:07.621Z,98564.47
2022-09-23T08:46:10.285Z,98558.94
2022-09-23T08:47:21.147Z,98565.84
2022-09-23T08:48:28.861Z,98562.53
2022-09-23T08:49:32.777Z,98560.44
2022-09-23T08:50:41.945Z,98562.41
2022-09-23T08:51:46.805Z,98566.31
2022-09-23T08:52:50.719Z,98563.44
2022-09-23T08:53:52.191Z,98565.16
2022-09-23T08:54:55.605Z,98564.47
2022-09-23T08:55:58.602Z,98568.41
2022-09-23T08:57:01.098Z,98565.66
2022-09-23T08:58:24.533Z,98558.09
2022-09-23T08:59:30.348Z,98569.00
2022-09-23T09:00:40.217Z,98565.25
2022-09-23T09:01:41.739Z,98572.28
2022-09-23T09:02:43.311Z,98574.28
2022-09-23T09:03:53.616Z,98576.03
2022-09-23T09:04:58.018Z,98570.25
2022-09-23T09:05:59.340Z,98569.47
2022-09-23T09:07:31.950Z,98568.84
2022-09-23T09:08:30.774Z,98575.09
2022-09-23T09:09:51.300Z,98573.06
2022-09-23T09:10:54.735Z,98571.94
2022-09-23T09:12:01.235Z,98566.78
2022-09-23T09:13:09.273Z,98572.34
2022-09-23T09:14:14.894Z,98569.34
2022-09-23T09:15:20.729Z,98571.22
2022-09-23T09:16:58.996Z,98574.03
2022-09-23T09:18:04.956Z,98561.72
2022-09-23T09:19:09.074Z,98558.38
2022-09-23T09:20:43.008Z,98557.72
2022-09-23T09:21:46.611Z,98554.41
2022-09-23T09:22:55.435Z,98556.06
2022-09-23T09:23:59.999Z,98558.28
2022-09-23T09:25:05.798Z,98555.97
2022-09-23T09:26:11.708Z,98555.19
2022-09-23T09:27:15.478Z,98552.59
2022-09-23T09:28:35.059Z,98552.53
2022-09-23T09:29:38.427Z,98553.88
2022-09-23T09:30:41.062Z,98560.56
2022-09-23T09:31:49.583Z,98550.56
2022-09-23T09:32:54.023Z,98551.44
2022-09-23T09:34:05.839Z,98552.88
2022-09-23T09:35:18.551Z,98549.13
2022-09-23T09:36:19.841Z,98554.44
2022-09-23T09:37:33.131Z,98554.22
2022-09-23T09:38:35.348Z,98552.44
2022-09-23T09:39:37.070Z,98552.56
2022-09-23T09:40:42.667Z,98549.31
2022-09-23T09:41:51.162Z,98548.31
2022-09-23T09:42:52.499Z,98542.31
2022-09-23T09:43:54.445Z,98543.22
2022-09-23T09:45:00.562Z,98541.66
2022-09-23T09:46:20.810Z,98544.44
2022-09-23T09:47:30.154Z,98545.25
2022-09-23T09:48:37.966Z,98542.66
2022-09-23T09:49:50.592Z,98545.13
2022-09-23T09:50:52.956Z,98542.44
2022-09-23T09:52:13.105Z,98537.75
2022-09-23T09:53:19.961Z,98538.22
2022-09-23T09:54:22.556Z,98532.19
2022-09-23T09:55:26.378Z,98532.19
2022-09-23T09:56:32.791Z,98521.19
2022-09-23T09:57:38.980Z,98531.66
2022-09-23T09:58:40.294Z,98528.16
2022-09-23T09:59:41.984Z,98522.28
2022-09-23T10:00:44.608Z,98523.72
2022-09-23T10:01:46.361Z,98520.16
2022-09-23T10:02:55.470Z,98522.16
2022-09-23T10:03:59.555Z,98518.25
2022-09-23T10:05:05.258Z,98522.38
2022-09-23T10:06:13.667Z,98519.03
2022-09-23T10:07:15.821Z,98513.91
2022-09-23T10:08:23.182Z,98514.75
2022-09-23T10:09:32.202Z,98512.56
2022-09-23T10:10:33.930Z,98514.88
2022-09-23T10:11:35.478Z,98515.34
2022-09-23T10:12:43.864Z,98518.00
2022-09-23T10:14:00.884Z,98524.38
2022-09-23T10:15:02.316Z,98518.69
2022-09-23T10:16:04.049Z,98506.97
2022-09-23T10:17:06.430Z,98516.13
2022-09-23T10:18:28.785Z,98514.69
2022-09-23T10:19:32.061Z,98511.75
2022-09-23T10:20:34.705Z,98512.31
2022-09-23T10:21:36.822Z,98514.22
2022-09-23T10:22:39.751Z,98509.31
2022-09-23T10:23:45.223Z,98512.00
2022-09-23T10:24:50.470Z,98510.88
2022-09-23T10:26:02.318Z,98508.63
2022-09-23T10:27:06.215Z,98512.63
2022-09-23T10:28:26.066Z,98510.16
2022-09-23T10:29:31.877Z,98509.56
2022-09-23T10:30:33.315Z,98505.69
2022-09-23T10:31:35.732Z,98508.00
2022-09-23T10:32:42.994Z,98504.91
2022-09-23T10:33:48.679Z,98512.00
2022-09-23T10:34:55.181Z,98495.72
2022-09-23T10:35:57.321Z,98506.84
2022-09-23T10:37:14.401Z,98503.03
2022-09-23T10:38:15.795Z,98501.75
2022-09-23T10:39:17.106Z,98500.19
2022-09-23T10:40:21.450Z,98501.84
2022-09-23T10:41:39.993Z,98492.78
2022-09-23T10:42:43.927Z,98501.66
2022-09-23T10:44:11.199Z,98497.91
2022-09-23T10:45:20.151Z,98494.88
2022-09-23T10:46:28.716Z,98497.97
2022-09-23T10:47:36.812Z,98494.63
2022-09-23T10:48:53.126Z,98490.56
2022-09-23T10:50:00.521Z,98495.66
2022-09-23T10:51:07.470Z,98484.97
2022-09-23T10:52:27.514Z,98491.97
2022-09-23T10:53:44.587Z,98482.13
2022-09-23T10:55:04.449Z,98488.09
2022-09-23T10:56:05.824Z,98491.75
2022-09-23T10:57:10.183Z,98490.00
2022-09-23T10:58:17.743Z,98486.19
2022-09-23T10:59:34.070Z,98482.84
2022-09-23T11:00:41.450Z,98484.84
2022-09-23T11:01:48.581Z,98482.16
2022-09-23T11:03:00.664Z,98480.59
2022-09-23T11:04:13.122Z,98473.78
2022-09-23T11:05:27.569Z,98474.28
2022-09-23T11:06:35.020Z,98473.50
2022-09-23T11:07:59.829Z,98471.94
2022-09-23T11:09:01.127Z,98473.16
2022-09-23T11:10:41.872Z,98472.03
2022-09-23T11:12:01.212Z,98469.63
2022-09-23T11:13:17.627Z,98467.13
2022-09-23T11:14:33.895Z,98466.09
2022-09-23T11:15:35.177Z,98472.31
2022-09-23T11:16:36.633Z,98464.69
2022-09-23T11:17:55.816Z,98468.16
2022-09-23T11:18:57.122Z,98465.22
2022-09-23T11:20:01.447Z,98463.38
2022-09-23T11:21:20.118Z,98468.13
2022-09-23T11:22:27.615Z,98462.56
2022-09-23T11:23:47.889Z,98455.78
2022-09-23T11:25:15.434Z,98463.75
2022-09-23T11:26:39.302Z,98462.53
2022-09-23T11:27:52.993Z,98460.06
2022-09-23T11:29:09.910Z,98452.84
2022-09-23T11:30:16.744Z,98453.22
2022-09-23T11:31:41.393Z,98456.25
2022-09-23T11:33:21.561Z,98447.63
2022-09-23T11:34:34.366Z,98447.69
2022-09-23T11:35:47.872Z,98449.88
2022-09-23T11:36:56.519Z,98449.06
2022-09-23T11:37:57.819Z,98449.44
2022-09-23T11:39:01.227Z,98438.72
2022-09-23T11:40:06.134Z,98441.75
2022-09-23T11:41:19.967Z,98439.44
2022-09-23T11:42:23.801Z,98443.72
2022-09-23T11:43:26.503Z,98434.28
2022-09-23T11:44:31.206Z,98433.84
2022-09-23T11:45:52.880Z,98443.03
2022-09-23T11:46:58.230Z,98440.00
2022-09-23T11:48:12.336Z,98440.50
2022-09-23T11:49:19.413Z,98434.72
2022-09-23T11:50:25.322Z,98437.38
2022-09-23T11:51:32.972Z,98438.25
2022-09-23T11:52:36.488Z,98434.94
2022-09-23T11:53:40.861Z,98429.66
2022-09-23T11:54:42.172Z,98434.31
2022-09-23T11:55:58.250Z,98424.44
2022-09-23T11:57:02.634Z,98431.41
2022-09-23T11:58:25.352Z,98426.03
2022-09-23T11:59:40.518Z,98427.34
2022-09-23T12:00:49.609Z,98424.69
2022-09-23T12:02:04.736Z,98429.75
2022-09-23T12:03:16.329Z,98425.16
2022-09-23T12:04:21.427Z,98422.38
2022-09-23T12:05:25.258Z,98425.56
2022-09-23T12:06:40.400Z,98425.72
2022-09-23T12:07:50.038Z,98430.72
2022-09-23T12:08:54.098Z,98431.38
2022-09-23T12:10:03.298Z,98429.44
2022-09-23T12:11:23.606Z,98428.31
2022-09-23T12:12:50.969Z,98428.81
2022-09-23T12:14:12.874Z,98425.75
2022-09-23T12:15:17.030Z,98426.78
2022-09-23T12:16:37.196Z,98434.75
2022-09-23T12:17:38.575Z,98429.03
2022-09-23T12:18:58.834Z,98426.00
2022-09-23T12:20:09.510Z,98429.66
2022-09-23T12:21:27.089Z,98425.50
2022-09-23T12:22:51.293Z,98425.75
2022-09-23T12:23:55.480Z,98421.34
2022-09-23T12:25:10.300Z,98421.25
2022-09-23T12:26:17.761Z,98417.09
2022-09-23T12:27:24.223Z,98424.28
2022-09-23T12:28:27.727Z,98428.03
2022-09-23T12:29:30.466Z,98419.97
2022-09-23T12:30:34.397Z,98419.97
2022-09-23T12:31:41.066Z,98420.13
2022-09-23T12:32:44.624Z,98419.28
2022-09-23T12:33:55.003Z,98417.72
2022-09-23T12:34:56.393Z,98418.16
2022-09-23T12:36:08.106Z,98408.97
2022-09-23T12:37:09.441Z,98417.44
2022-09-23T12:38:25.569Z,98417.84
2022-09-23T12:39:29.742Z,98410.25
2022-09-23T12:40:37.946Z,98415.28
2022-09-23T12:41:40.817Z,98413.00
2022-09-23T12:42:44.709Z,98408.84
2022-09-23T12:43:53.318Z,98406.69
2022-09-23T12:45:14.650Z,98411.44
2022-09-23T12:46:16.804Z,98408.63
2022-09-23T12:47:18.132Z,98402.00